Danville, IL

5:51 PM CDT on May 04, 2015 (GMT -0500)
Danville Area Community College | | Change Station
CLOSE
Current Station
Personal Weather Station
Location: Danville, IL
Elevation: 656 ft
Nearby Weather Stations

Elev 656 ft 40.13 °N, 87.59 °W | Updated 1 minute ago

Mostly Cloudy
Mostly Cloudy
66.6 °F
Feels Like 66.6 °F
N
8.1
Wind Variable Wind from ENE
Gusts 9.0 mph

Today
High -- | Low -- °F
--% Chance of Precip.
Yesterday
High -- | Low -- °F
Precip. -- in
5:46 AM 7:48 PM
Full, 99% visible
Pressure 30.10 in
Visibility 10.0 miles
Clouds Scattered Clouds 5000 ft
Scattered Clouds 7500 ft
Overcast 11000 ft
Dew Point 63 °F
Humidity 88%
Rainfall 0.24 in
Snow Depth Not available.
UV 1 out of 12
Pollen 10.50 out of 12
Air Quality Not available.
Flu Activity Local Activity
METAR KDNV 042215Z AUTO 03004KT 10SM SCT050 SCT075 OVC110 19/17 A3010 RMK AO2 T01900166

More Conditions Fewer Conditions

Pressure 30.10 in
Visibility 10.0 miles
Clouds Scattered Clouds 5000 ft
Scattered Clouds 7500 ft
Overcast 11000 ft
Dew Point 63 °F
Humidity 88%
Rainfall 0.24 in
Snow Depth Not available.
UV 1 out of 12
Pollen 10.50 out of 12
Air Quality Not available.
Flu Activity Local Activity
METAR KDNV 042215Z AUTO 03004KT 10SM SCT050 SCT075 OVC110 19/17 A3010 RMK AO2 T01900166

More Conditions Fewer Conditions

Nepal has a long way to go to dig out and rebuild from a devastating earthquake. We have teamed up with several charities and organizations to make contributing to the relief effort as easy as possible.
How you can help: Portlight Strategies | Red Cross

10-Day Weather Forecast

Almanac

Astronomy

May. 04, 2015 Rise Set
Actual Time
Civil Twilight
Nautical Twilight
Astronomical Twilight
Moon
Length of Visible Light
Length of Day
Tomorrow will be .
, % of the Moon is Illuminated

Today's Extremes

State Highs State Lows

Community

WunderPhotos

Upload Photos

1,818,720 photos uploaded!

WunderBlogs® & News

Nearby

Air Quality

  Air Quality AQ Index Pollutant
Not available.

Snow Depth

Station Depth Elevation

Earthquake Activity

City Distance Mag. Time & Date
Minimum magnitude displayed is 2.5.

Coastal Water Temperatures

Place Temperature

Stations

Nearby Weather Stations

Station Location Temp. Windchill Dew Point Humidity Wind Precip. Elev Updated Type